This is the latest recevied weather packets stored in our database for station/object IU5GBO-13. If no packets are shown the sender has not sent any weather packets the latest 10 day(s).
| Time | Temp. | Humidity | Pressure | Rain* | Wind** | Luminosity | Snow |
|---|---|---|---|---|---|---|---|
| 1777531573 | 18.89° C | 51% | 1019 hPa | - | - | - | - |
| 1777530972 | 18.33° C | 53% | 1018.9 hPa | - | - | - | - |
| 1777530373 | 18.33° C | 54% | 1018.7 hPa | - | - | - | - |
| 1777529773 | 17.78° C | 55% | 1018.7 hPa | - | - | - | - |
| 1777529173 | 17.22° C | 58% | 1018.9 hPa | - | - | - | - |
| 1777528573 | 16.67° C | 60% | 1018.9 hPa | - | - | - | - |
| 1777527972 | 16.11° C | 60% | 1019.1 hPa | - | - | - | - |
| 1777527373 | 16.11° C | 60% | 1018.9 hPa | - | - | - | - |
| 1777526773 | 16.11° C | 60% | 1018.6 hPa | - | - | - | - |
| 1777526173 | 15.56° C | 61% | 1018.5 hPa | - | - | - | - |
| 1777525573 | 15° C | 63% | 1018.4 hPa | - | - | - | - |
| 1777524972 | 13.89° C | 66% | 1018.2 hPa | - | - | - | - |
| 1777524372 | 13.33° C | 68% | 1018 hPa | - | - | - | - |
| 1777523772 | 12.78° C | 69% | 1018 hPa | - | - | - | - |
| 1777523172 | 12.22° C | 69% | 1018 hPa | - | - | - | - |
| 1777522573 | 12.22° C | 67% | 1018.1 hPa | - | - | - | - |
| 1777521973 | 12.22° C | 67% | 1018.3 hPa | - | - | - | - |
| 1777521372 | 11.67° C | 68% | 1018.1 hPa | - | - | - | - |
| 1777520772 | 11.67° C | 67% | 1018 hPa | - | - | - | - |
| 1777520173 | 11.67° C | 66% | 1017.9 hPa | - | - | - | - |
| 1777519572 | 11.67° C | 66% | 1017.9 hPa | - | - | - | - |
| 1777518972 | 11.11° C | 67% | 1017.9 hPa | - | - | - | - |
| 1777518372 | 11.11° C | 65% | 1018.1 hPa | - | - | - | - |
| 1777517772 | 11.67° C | 63% | 1017.9 hPa | - | - | - | - |
| 1777517173 | 11.67° C | 62% | 1017.9 hPa | - | - | - | - |
* Rain since midnight (hover to see other rain measurements)
** Current wind speed in m/s (hover to see current wind gust speed)